Portada
METAR-TAF:

METAR-TAF

Aeropuertos :

Aeropuerto Internacional de Pekín-Capital

Pekín, China

latitud: 39-56N, longitud: 116-17E, altitud: 55 m

Observación

El informe se hizo hace 11 minutos, a las 14:00 UTC
Viento 12 kt del norte
Temperatura 6°C
Humedad 87%
Presión 1018 hPa
Visibilidad: 8000 m
Escasas nubes a una altura de 1000 ft
Cielo cubierto a una altura de 3300 ft
lluvia

METAR: ZBAA 241400Z 01006MPS 8000 RA FEW010 OVC033 06/04 Q1018 BECMG TL1510 -RA

Hora: 22:11 (14:11 UTC)

Pronóstico

El informe se hizo hace 4 horas y 51 minutos, a las 09:20 UTC
Pronóstico válido del 24 a las 12 UTC al 25 a las 12 UTC
Viento 8 kt del norte
Visibilidad 10 km o más
Cielo nuboso a una altura de 4000 ft
chaparrones de lluvia

TAF: ZBAA 240920Z 2412/2512 01004MPS 9999 -SHRA BKN040 TX18/2507Z TN08/2421Z

Observaciones y pronósticos meteorológicos de más de 4000 aeropuertos (mensajes METAR y TAF).

Los puntos amarillos y rojos representan las estaciones disponibles.

Ponga el ratón en el punto deseado para ver el nombre de la estación.

Haga clic para ver las observaciones y los pronósticos meteorológicos.

Para cambiar el mapa : haga clic en los botones verdes con una cruz de color negro para hacer un zoom, en el botón verde con un guión para alejar o en las flechas verdes para mapas adyacentes.


METAR-TAF: